<?xml version="1.0" encoding="utf-8"?>
<gpx xmlns:xsi="http://www.w3.org/2001/XMLSchema-instance" xmlns:xsd="http://www.w3.org/2001/XMLSchema" version="1.1" creator="Shapelink.com" xmlns="http://www.topografix.com/GPX/1/1" xmlns:gpxtpx="http://www.garmin.com/xmlschemas/TrackPointExtension/v1">
  <metadata>
    <name>Kører 0.00 km, 2014-10-31</name>
    <desc></desc>
    <author><name>Stefan Östlund</name></author> 
    <time>2014-10-31T15:06:55Z</time>
  </metadata>
  <trk>
    <name>Kører 0.00 km, 2014-10-31</name>
    <trkseg>
      <trkpt lat="59.9808984" lon="15.7885685">
        <ele>110.208</ele>
        <time>2014-10-31T15:06:55Z</time>
      </trkpt>
      <trkpt lat="59.9808917" lon="15.7885111">
        <ele>113.573</ele>
        <time>2014-10-31T15:06:56Z</time>
      </trkpt>
      <trkpt lat="59.9807993" lon="15.7883157">
        <ele>115.496</ele>
        <time>2014-10-31T15:07:02Z</time>
      </trkpt>
      <trkpt lat="59.9807399" lon="15.7881739">
        <ele>115.496</ele>
        <time>2014-10-31T15:07:06Z</time>
      </trkpt>
      <trkpt lat="59.980643" lon="15.7879646">
        <ele>113.092</ele>
        <time>2014-10-31T15:07:12Z</time>
      </trkpt>
      <trkpt lat="59.98058" lon="15.7878157">
        <ele>110.208</ele>
        <time>2014-10-31T15:07:17Z</time>
      </trkpt>
      <trkpt lat="59.9805284" lon="15.7876466">
        <ele>109.728</ele>
        <time>2014-10-31T15:07:21Z</time>
      </trkpt>
      <trkpt lat="59.9804637" lon="15.7873845">
        <ele>111.17</ele>
        <time>2014-10-31T15:07:27Z</time>
      </trkpt>
      <trkpt lat="59.9804125" lon="15.7871765">
        <ele>110.208</ele>
        <time>2014-10-31T15:07:32Z</time>
      </trkpt>
      <trkpt lat="59.9803589" lon="15.7868916">
        <ele>111.17</ele>
        <time>2014-10-31T15:07:38Z</time>
      </trkpt>
      <trkpt lat="59.9803221" lon="15.7866788">
        <ele>114.534</ele>
        <time>2014-10-31T15:07:42Z</time>
      </trkpt>
      <trkpt lat="59.9802777" lon="15.7864053">
        <ele>117.418</ele>
        <time>2014-10-31T15:07:47Z</time>
      </trkpt>
      <trkpt lat="59.9802187" lon="15.7860973">
        <ele>118.379</ele>
        <time>2014-10-31T15:07:53Z</time>
      </trkpt>
      <trkpt lat="59.9801751" lon="15.7858598">
        <ele>116.457</ele>
        <time>2014-10-31T15:07:58Z</time>
      </trkpt>
      <trkpt lat="59.9801335" lon="15.7856346">
        <ele>114.054</ele>
        <time>2014-10-31T15:08:03Z</time>
      </trkpt>
      <trkpt lat="59.9801099" lon="15.7853599">
        <ele>114.534</ele>
        <time>2014-10-31T15:08:08Z</time>
      </trkpt>
      <trkpt lat="59.9800928" lon="15.7850984">
        <ele>116.938</ele>
        <time>2014-10-31T15:08:13Z</time>
      </trkpt>
      <trkpt lat="59.980042" lon="15.7848094">
        <ele>113.092</ele>
        <time>2014-10-31T15:08:20Z</time>
      </trkpt>
      <trkpt lat="59.9799726" lon="15.7845974">
        <ele>115.976</ele>
        <time>2014-10-31T15:08:25Z</time>
      </trkpt>
      <trkpt lat="59.9799104" lon="15.7844339">
        <ele>116.938</ele>
        <time>2014-10-31T15:08:29Z</time>
      </trkpt>
      <trkpt lat="59.9798476" lon="15.7842654">
        <ele>115.976</ele>
        <time>2014-10-31T15:08:34Z</time>
      </trkpt>
      <trkpt lat="59.9797981" lon="15.7841127">
        <ele>116.457</ele>
        <time>2014-10-31T15:08:38Z</time>
      </trkpt>
      <trkpt lat="59.9797844" lon="15.7840861">
        <ele>116.457</ele>
        <time>2014-10-31T15:08:39Z</time>
      </trkpt>
      <trkpt lat="59.9796823" lon="15.7841209">
        <ele>114.054</ele>
        <time>2014-10-31T15:08:45Z</time>
      </trkpt>
      <trkpt lat="59.9796028" lon="15.7841663">
        <ele>113.092</ele>
        <time>2014-10-31T15:08:49Z</time>
      </trkpt>
      <trkpt lat="59.9795402" lon="15.7840899">
        <ele>110.208</ele>
        <time>2014-10-31T15:08:54Z</time>
      </trkpt>
      <trkpt lat="59.9795248" lon="15.7839884">
        <ele>112.131</ele>
        <time>2014-10-31T15:08:57Z</time>
      </trkpt>
      <trkpt lat="59.9794603" lon="15.783763">
        <ele>114.054</ele>
        <time>2014-10-31T15:09:03Z</time>
      </trkpt>
      <trkpt lat="59.9793796" lon="15.7835867">
        <ele>116.457</ele>
        <time>2014-10-31T15:09:08Z</time>
      </trkpt>
      <trkpt lat="59.9792723" lon="15.7834062">
        <ele>119.341</ele>
        <time>2014-10-31T15:09:14Z</time>
      </trkpt>
      <trkpt lat="59.9791693" lon="15.7833092">
        <ele>117.418</ele>
        <time>2014-10-31T15:09:19Z</time>
      </trkpt>
      <trkpt lat="59.979055" lon="15.7832463">
        <ele>115.015</ele>
        <time>2014-10-31T15:09:25Z</time>
      </trkpt>
      <trkpt lat="59.978934" lon="15.7831075">
        <ele>116.938</ele>
        <time>2014-10-31T15:09:30Z</time>
      </trkpt>
      <trkpt lat="59.9789091" lon="15.7830808">
        <ele>116.457</ele>
        <time>2014-10-31T15:09:31Z</time>
      </trkpt>
      <trkpt lat="59.9787631" lon="15.7829938">
        <ele>117.899</ele>
        <time>2014-10-31T15:09:37Z</time>
      </trkpt>
      <trkpt lat="59.9786139" lon="15.7829673">
        <ele>114.054</ele>
        <time>2014-10-31T15:09:44Z</time>
      </trkpt>
      <trkpt lat="59.9785318" lon="15.7829098">
        <ele>114.054</ele>
        <time>2014-10-31T15:09:47Z</time>
      </trkpt>
      <trkpt lat="59.9783165" lon="15.7828025">
        <ele>113.092</ele>
        <time>2014-10-31T15:09:55Z</time>
      </trkpt>
      <trkpt lat="59.9782103" lon="15.7826976">
        <ele>111.17</ele>
        <time>2014-10-31T15:10:00Z</time>
      </trkpt>
      <trkpt lat="59.9781071" lon="15.7825497">
        <ele>106.844</ele>
        <time>2014-10-31T15:10:05Z</time>
      </trkpt>
      <trkpt lat="59.9780095" lon="15.7822528">
        <ele>109.247</ele>
        <time>2014-10-31T15:10:11Z</time>
      </trkpt>
      <trkpt lat="59.9779265" lon="15.7820826">
        <ele>106.363</ele>
        <time>2014-10-31T15:10:16Z</time>
      </trkpt>
      <trkpt lat="59.9778103" lon="15.7818389">
        <ele>101.556</ele>
        <time>2014-10-31T15:10:23Z</time>
      </trkpt>
      <trkpt lat="59.9777203" lon="15.7816173">
        <ele>102.518</ele>
        <time>2014-10-31T15:10:28Z</time>
      </trkpt>
      <trkpt lat="59.977658" lon="15.7815014">
        <ele>102.037</ele>
        <time>2014-10-31T15:10:32Z</time>
      </trkpt>
      <trkpt lat="59.9775702" lon="15.7813587">
        <ele>101.556</ele>
        <time>2014-10-31T15:10:37Z</time>
      </trkpt>
      <trkpt lat="59.9774747" lon="15.7812688">
        <ele>102.037</ele>
        <time>2014-10-31T15:10:42Z</time>
      </trkpt>
      <trkpt lat="59.9773753" lon="15.7811232">
        <ele>103.96</ele>
        <time>2014-10-31T15:10:47Z</time>
      </trkpt>
      <trkpt lat="59.9773151" lon="15.7810234">
        <ele>105.402</ele>
        <time>2014-10-31T15:10:51Z</time>
      </trkpt>
      <trkpt lat="59.9772147" lon="15.7808382">
        <ele>102.037</ele>
        <time>2014-10-31T15:10:57Z</time>
      </trkpt>
      <trkpt lat="59.9771416" lon="15.7806311">
        <ele>109.728</ele>
        <time>2014-10-31T15:11:02Z</time>
      </trkpt>
      <trkpt lat="59.9770205" lon="15.780474">
        <ele>116.938</ele>
        <time>2014-10-31T15:11:07Z</time>
      </trkpt>
      <trkpt lat="59.9769118" lon="15.7803379">
        <ele>124.147</ele>
        <time>2014-10-31T15:11:12Z</time>
      </trkpt>
      <trkpt lat="59.9767786" lon="15.7802933">
        <ele>127.512</ele>
        <time>2014-10-31T15:11:18Z</time>
      </trkpt>
      <trkpt lat="59.9766459" lon="15.7802699">
        <ele>128.954</ele>
        <time>2014-10-31T15:11:23Z</time>
      </trkpt>
      <trkpt lat="59.9765334" lon="15.7801907">
        <ele>129.435</ele>
        <time>2014-10-31T15:11:27Z</time>
      </trkpt>
      <trkpt lat="59.9764015" lon="15.780155">
        <ele>128.954</ele>
        <time>2014-10-31T15:11:32Z</time>
      </trkpt>
      <trkpt lat="59.9762025" lon="15.7801239">
        <ele>131.357</ele>
        <time>2014-10-31T15:11:37Z</time>
      </trkpt>
      <trkpt lat="59.9760243" lon="15.7801421">
        <ele>131.838</ele>
        <time>2014-10-31T15:11:42Z</time>
      </trkpt>
      <trkpt lat="59.9758969" lon="15.780197">
        <ele>136.645</ele>
        <time>2014-10-31T15:11:47Z</time>
      </trkpt>
      <trkpt lat="59.9758364" lon="15.7802203">
        <ele>137.125</ele>
        <time>2014-10-31T15:11:51Z</time>
      </trkpt>
      <trkpt lat="59.9757146" lon="15.780265">
        <ele>135.683</ele>
        <time>2014-10-31T15:11:57Z</time>
      </trkpt>
      <trkpt lat="59.9755761" lon="15.7802731">
        <ele>133.76</ele>
        <time>2014-10-31T15:12:02Z</time>
      </trkpt>
      <trkpt lat="59.9754816" lon="15.7802763">
        <ele>131.357</ele>
        <time>2014-10-31T15:12:07Z</time>
      </trkpt>
      <trkpt lat="59.9753547" lon="15.7802322">
        <ele>125.589</ele>
        <time>2014-10-31T15:12:12Z</time>
      </trkpt>
      <trkpt lat="59.975264" lon="15.7801681">
        <ele>123.667</ele>
        <time>2014-10-31T15:12:16Z</time>
      </trkpt>
      <trkpt lat="59.975137" lon="15.7800383">
        <ele>119.821</ele>
        <time>2014-10-31T15:12:22Z</time>
      </trkpt>
      <trkpt lat="59.9750001" lon="15.7799001">
        <ele>116.457</ele>
        <time>2014-10-31T15:12:28Z</time>
      </trkpt>
      <trkpt lat="59.9748664" lon="15.7797733">
        <ele>112.131</ele>
        <time>2014-10-31T15:12:34Z</time>
      </trkpt>
      <trkpt lat="59.9747827" lon="15.7797107">
        <ele>109.728</ele>
        <time>2014-10-31T15:12:38Z</time>
      </trkpt>
      <trkpt lat="59.9746935" lon="15.7796863">
        <ele>105.882</ele>
        <time>2014-10-31T15:12:42Z</time>
      </trkpt>
      <trkpt lat="59.9745641" lon="15.77961">
        <ele>101.076</ele>
        <time>2014-10-31T15:12:47Z</time>
      </trkpt>
      <trkpt lat="59.9744329" lon="15.7795217">
        <ele>99.1531</ele>
        <time>2014-10-31T15:12:51Z</time>
      </trkpt>
      <trkpt lat="59.9743297" lon="15.77946">
        <ele>95.7885</ele>
        <time>2014-10-31T15:12:55Z</time>
      </trkpt>
      <trkpt lat="59.9742187" lon="15.7794433">
        <ele>89.0593</ele>
        <time>2014-10-31T15:13:00Z</time>
      </trkpt>
      <trkpt lat="59.9740678" lon="15.7793238">
        <ele>89.0593</ele>
        <time>2014-10-31T15:13:05Z</time>
      </trkpt>
      <trkpt lat="59.9739435" lon="15.7792347">
        <ele>90.9819</ele>
        <time>2014-10-31T15:13:10Z</time>
      </trkpt>
      <trkpt lat="59.9738377" lon="15.7791755">
        <ele>92.9045</ele>
        <time>2014-10-31T15:13:14Z</time>
      </trkpt>
      <trkpt lat="59.9737559" lon="15.779089">
        <ele>90.5013</ele>
        <time>2014-10-31T15:13:18Z</time>
      </trkpt>
      <trkpt lat="59.9737275" lon="15.7790665">
        <ele>90.9819</ele>
        <time>2014-10-31T15:13:19Z</time>
      </trkpt>
      <trkpt lat="59.9736097" lon="15.779045">
        <ele>92.9045</ele>
        <time>2014-10-31T15:13:23Z</time>
      </trkpt>
      <trkpt lat="59.9734726" lon="15.7790059">
        <ele>92.9045</ele>
        <time>2014-10-31T15:13:29Z</time>
      </trkpt>
      <trkpt lat="59.9733504" lon="15.7789834">
        <ele>93.8658</ele>
        <time>2014-10-31T15:13:33Z</time>
      </trkpt>
      <trkpt lat="59.9732286" lon="15.7789705">
        <ele>95.7885</ele>
        <time>2014-10-31T15:13:37Z</time>
      </trkpt>
      <trkpt lat="59.9731535" lon="15.7789989">
        <ele>94.3466</ele>
        <time>2014-10-31T15:13:41Z</time>
      </trkpt>
      <trkpt lat="59.9730386" lon="15.7790729">
        <ele>96.2693</ele>
        <time>2014-10-31T15:13:45Z</time>
      </trkpt>
      <trkpt lat="59.9729736" lon="15.7792825">
        <ele>94.3466</ele>
        <time>2014-10-31T15:13:50Z</time>
      </trkpt>
      <trkpt lat="59.9729461" lon="15.779539">
        <ele>90.9819</ele>
        <time>2014-10-31T15:13:55Z</time>
      </trkpt>
      <trkpt lat="59.9729272" lon="15.7798743">
        <ele>86.1753</ele>
        <time>2014-10-31T15:14:01Z</time>
      </trkpt>
      <trkpt lat="59.9729079" lon="15.7801885">
        <ele>89.0593</ele>
        <time>2014-10-31T15:14:07Z</time>
      </trkpt>
      <trkpt lat="59.9729565" lon="15.7803612">
        <ele>88.098</ele>
        <time>2014-10-31T15:14:11Z</time>
      </trkpt>
      <trkpt lat="59.9730679" lon="15.7805416">
        <ele>87.6172</ele>
        <time>2014-10-31T15:14:16Z</time>
      </trkpt>
      <trkpt lat="59.9731959" lon="15.7807233">
        <ele>87.6172</ele>
        <time>2014-10-31T15:14:22Z</time>
      </trkpt>
      <trkpt lat="59.9732403" lon="15.7807768">
        <ele>87.1366</ele>
        <time>2014-10-31T15:14:24Z</time>
      </trkpt>
      <trkpt lat="59.9733455" lon="15.78096">
        <ele>83.772</ele>
        <time>2014-10-31T15:14:29Z</time>
      </trkpt>
      <trkpt lat="59.9734391" lon="15.781146">
        <ele>83.2914</ele>
        <time>2014-10-31T15:14:34Z</time>
      </trkpt>
      <trkpt lat="59.9735354" lon="15.7813347">
        <ele>83.772</ele>
        <time>2014-10-31T15:14:40Z</time>
      </trkpt>
      <trkpt lat="59.9736047" lon="15.7815559">
        <ele>83.772</ele>
        <time>2014-10-31T15:14:45Z</time>
      </trkpt>
      <trkpt lat="59.9736812" lon="15.7817517">
        <ele>81.3688</ele>
        <time>2014-10-31T15:14:50Z</time>
      </trkpt>
      <trkpt lat="59.9737424" lon="15.781965">
        <ele>79.9266</ele>
        <time>2014-10-31T15:14:55Z</time>
      </trkpt>
      <trkpt lat="59.973797" lon="15.7823074">
        <ele>78.4847</ele>
        <time>2014-10-31T15:15:02Z</time>
      </trkpt>
      <trkpt lat="59.9738151" lon="15.7826172">
        <ele>79.446</ele>
        <time>2014-10-31T15:15:07Z</time>
      </trkpt>
      <trkpt lat="59.9738653" lon="15.7828347">
        <ele>80.4075</ele>
        <time>2014-10-31T15:15:12Z</time>
      </trkpt>
      <trkpt lat="59.9738762" lon="15.7828756">
        <ele>79.9266</ele>
        <time>2014-10-31T15:15:13Z</time>
      </trkpt>
      <trkpt lat="59.9739506" lon="15.7831393">
        <ele>81.3688</ele>
        <time>2014-10-31T15:15:19Z</time>
      </trkpt>
      <trkpt lat="59.9740632" lon="15.7833318">
        <ele>80.4075</ele>
        <time>2014-10-31T15:15:25Z</time>
      </trkpt>
      <trkpt lat="59.97416" lon="15.7834763">
        <ele>79.9266</ele>
        <time>2014-10-31T15:15:30Z</time>
      </trkpt>
      <trkpt lat="59.9742548" lon="15.7837346">
        <ele>78.9655</ele>
        <time>2014-10-31T15:15:36Z</time>
      </trkpt>
      <trkpt lat="59.9743334" lon="15.7838781">
        <ele>78.9655</ele>
        <time>2014-10-31T15:15:40Z</time>
      </trkpt>
      <trkpt lat="59.9744157" lon="15.7839713">
        <ele>78.4847</ele>
        <time>2014-10-31T15:15:44Z</time>
      </trkpt>
      <trkpt lat="59.9744971" lon="15.7841065">
        <ele>80.4075</ele>
        <time>2014-10-31T15:15:48Z</time>
      </trkpt>
      <trkpt lat="59.9745796" lon="15.7842664">
        <ele>81.3688</ele>
        <time>2014-10-31T15:15:53Z</time>
      </trkpt>
      <trkpt lat="59.9746698" lon="15.7843918">
        <ele>80.8882</ele>
        <time>2014-10-31T15:15:58Z</time>
      </trkpt>
      <trkpt lat="59.9747861" lon="15.7845101">
        <ele>85.214</ele>
        <time>2014-10-31T15:16:03Z</time>
      </trkpt>
      <trkpt lat="59.9748747" lon="15.7845416">
        <ele>84.2527</ele>
        <time>2014-10-31T15:16:07Z</time>
      </trkpt>
      <trkpt lat="59.9750032" lon="15.7847006">
        <ele>82.8108</ele>
        <time>2014-10-31T15:16:13Z</time>
      </trkpt>
      <trkpt lat="59.9751109" lon="15.7848067">
        <ele>83.2914</ele>
        <time>2014-10-31T15:16:17Z</time>
      </trkpt>
      <trkpt lat="59.97523" lon="15.7850197">
        <ele>80.8882</ele>
        <time>2014-10-31T15:16:23Z</time>
      </trkpt>
      <trkpt lat="59.9753292" lon="15.7852004">
        <ele>81.3688</ele>
        <time>2014-10-31T15:16:28Z</time>
      </trkpt>
      <trkpt lat="59.9754645" lon="15.7853828">
        <ele>79.446</ele>
        <time>2014-10-31T15:16:34Z</time>
      </trkpt>
      <trkpt lat="59.975579" lon="15.7855516">
        <ele>80.4075</ele>
        <time>2014-10-31T15:16:39Z</time>
      </trkpt>
      <trkpt lat="59.975645" lon="15.785738">
        <ele>80.4075</ele>
        <time>2014-10-31T15:16:43Z</time>
      </trkpt>
      <trkpt lat="59.9756856" lon="15.7859419">
        <ele>81.3688</ele>
        <time>2014-10-31T15:16:47Z</time>
      </trkpt>
      <trkpt lat="59.9757539" lon="15.7861935">
        <ele>82.8108</ele>
        <time>2014-10-31T15:16:52Z</time>
      </trkpt>
      <trkpt lat="59.9758213" lon="15.7864306">
        <ele>81.8494</ele>
        <time>2014-10-31T15:16:57Z</time>
      </trkpt>
      <trkpt lat="59.97586" lon="15.7867035">
        <ele>81.3688</ele>
        <time>2014-10-31T15:17:03Z</time>
      </trkpt>
      <trkpt lat="59.9758793" lon="15.7869684">
        <ele>82.3301</ele>
        <time>2014-10-31T15:17:08Z</time>
      </trkpt>
      <trkpt lat="59.9759203" lon="15.7872131">
        <ele>84.2527</ele>
        <time>2014-10-31T15:17:13Z</time>
      </trkpt>
      <trkpt lat="59.9759491" lon="15.7874119">
        <ele>85.6946</ele>
        <time>2014-10-31T15:17:17Z</time>
      </trkpt>
      <trkpt lat="59.9759689" lon="15.7876007">
        <ele>83.772</ele>
        <time>2014-10-31T15:17:21Z</time>
      </trkpt>
      <trkpt lat="59.9759853" lon="15.787824">
        <ele>81.3688</ele>
        <time>2014-10-31T15:17:26Z</time>
      </trkpt>
      <trkpt lat="59.97605" lon="15.7880291">
        <ele>80.4075</ele>
        <time>2014-10-31T15:17:31Z</time>
      </trkpt>
      <trkpt lat="59.9761378" lon="15.788179">
        <ele>78.4847</ele>
        <time>2014-10-31T15:17:36Z</time>
      </trkpt>
      <trkpt lat="59.9762374" lon="15.7883789">
        <ele>77.0428</ele>
        <time>2014-10-31T15:17:42Z</time>
      </trkpt>
      <trkpt lat="59.9763295" lon="15.7885526">
        <ele>77.0428</ele>
        <time>2014-10-31T15:17:47Z</time>
      </trkpt>
      <trkpt lat="59.9763729" lon="15.788666">
        <ele>76.5621</ele>
        <time>2014-10-31T15:17:50Z</time>
      </trkpt>
      <trkpt lat="59.9764271" lon="15.7888595">
        <ele>78.004</ele>
        <time>2014-10-31T15:17:54Z</time>
      </trkpt>
      <trkpt lat="59.9764434" lon="15.78897">
        <ele>78.4847</ele>
        <time>2014-10-31T15:17:56Z</time>
      </trkpt>
      <trkpt lat="59.9765309" lon="15.7892809">
        <ele>80.8882</ele>
        <time>2014-10-31T15:18:03Z</time>
      </trkpt>
      <trkpt lat="59.9766381" lon="15.7895186">
        <ele>83.772</ele>
        <time>2014-10-31T15:18:09Z</time>
      </trkpt>
      <trkpt lat="59.9767211" lon="15.789861">
        <ele>85.6946</ele>
        <time>2014-10-31T15:18:16Z</time>
      </trkpt>
      <trkpt lat="59.9767954" lon="15.790016">
        <ele>86.1753</ele>
        <time>2014-10-31T15:18:20Z</time>
      </trkpt>
      <trkpt lat="59.9768531" lon="15.7902759">
        <ele>85.6946</ele>
        <time>2014-10-31T15:18:25Z</time>
      </trkpt>
      <trkpt lat="59.9769351" lon="15.7904283">
        <ele>83.772</ele>
        <time>2014-10-31T15:18:29Z</time>
      </trkpt>
      <trkpt lat="59.9770235" lon="15.7906475">
        <ele>82.3301</ele>
        <time>2014-10-31T15:18:33Z</time>
      </trkpt>
      <trkpt lat="59.9770587" lon="15.7909609">
        <ele>82.8108</ele>
        <time>2014-10-31T15:18:39Z</time>
      </trkpt>
      <trkpt lat="59.977125" lon="15.7911971">
        <ele>80.8882</ele>
        <time>2014-10-31T15:18:44Z</time>
      </trkpt>
      <trkpt lat="59.9772526" lon="15.7914482">
        <ele>79.446</ele>
        <time>2014-10-31T15:18:51Z</time>
      </trkpt>
      <trkpt lat="59.977352" lon="15.7915978">
        <ele>80.8882</ele>
        <time>2014-10-31T15:18:56Z</time>
      </trkpt>
      <trkpt lat="59.9774591" lon="15.7917615">
        <ele>81.3688</ele>
        <time>2014-10-31T15:19:02Z</time>
      </trkpt>
      <trkpt lat="59.9775722" lon="15.7919047">
        <ele>83.772</ele>
        <time>2014-10-31T15:19:07Z</time>
      </trkpt>
      <trkpt lat="59.977699" lon="15.7920615">
        <ele>88.098</ele>
        <time>2014-10-31T15:19:12Z</time>
      </trkpt>
      <trkpt lat="59.9778586" lon="15.7921713">
        <ele>88.5787</ele>
        <time>2014-10-31T15:19:18Z</time>
      </trkpt>
      <trkpt lat="59.9779713" lon="15.7922522">
        <ele>90.9819</ele>
        <time>2014-10-31T15:19:22Z</time>
      </trkpt>
      <trkpt lat="59.9780485" lon="15.7923313">
        <ele>92.424</ele>
        <time>2014-10-31T15:19:26Z</time>
      </trkpt>
      <trkpt lat="59.9781918" lon="15.7924567">
        <ele>90.5013</ele>
        <time>2014-10-31T15:19:32Z</time>
      </trkpt>
      <trkpt lat="59.9782844" lon="15.792534">
        <ele>89.5399</ele>
        <time>2014-10-31T15:19:36Z</time>
      </trkpt>
      <trkpt lat="59.9784018" lon="15.7926117">
        <ele>87.1366</ele>
        <time>2014-10-31T15:19:41Z</time>
      </trkpt>
      <trkpt lat="59.9785624" lon="15.7926706">
        <ele>87.1366</ele>
        <time>2014-10-31T15:19:47Z</time>
      </trkpt>
      <trkpt lat="59.9787349" lon="15.7926749">
        <ele>88.098</ele>
        <time>2014-10-31T15:19:53Z</time>
      </trkpt>
      <trkpt lat="59.9788905" lon="15.7926014">
        <ele>88.098</ele>
        <time>2014-10-31T15:19:59Z</time>
      </trkpt>
      <trkpt lat="59.9790681" lon="15.7924809">
        <ele>87.6172</ele>
        <time>2014-10-31T15:20:06Z</time>
      </trkpt>
      <trkpt lat="59.9792205" lon="15.792305">
        <ele>85.214</ele>
        <time>2014-10-31T15:20:13Z</time>
      </trkpt>
      <trkpt lat="59.979347" lon="15.7921703">
        <ele>82.8108</ele>
        <time>2014-10-31T15:20:19Z</time>
      </trkpt>
      <trkpt lat="59.9794474" lon="15.7920634">
        <ele>79.9266</ele>
        <time>2014-10-31T15:20:24Z</time>
      </trkpt>
      <trkpt lat="59.9795866" lon="15.7920103">
        <ele>79.446</ele>
        <time>2014-10-31T15:20:30Z</time>
      </trkpt>
      <trkpt lat="59.9797298" lon="15.7919832">
        <ele>83.772</ele>
        <time>2014-10-31T15:20:36Z</time>
      </trkpt>
      <trkpt lat="59.9799031" lon="15.7918761">
        <ele>92.424</ele>
        <time>2014-10-31T15:20:42Z</time>
      </trkpt>
      <trkpt lat="59.9800338" lon="15.7918186">
        <ele>91.4625</ele>
        <time>2014-10-31T15:20:48Z</time>
      </trkpt>
      <trkpt lat="59.9801559" lon="15.7919591">
        <ele>91.9432</ele>
        <time>2014-10-31T15:20:54Z</time>
      </trkpt>
      <trkpt lat="59.9802834" lon="15.7921536">
        <ele>91.4625</ele>
        <time>2014-10-31T15:21:00Z</time>
      </trkpt>
      <trkpt lat="59.9803751" lon="15.7923468">
        <ele>90.5013</ele>
        <time>2014-10-31T15:21:05Z</time>
      </trkpt>
      <trkpt lat="59.9804662" lon="15.7925734">
        <ele>88.5787</ele>
        <time>2014-10-31T15:21:11Z</time>
      </trkpt>
      <trkpt lat="59.9804757" lon="15.7928242">
        <ele>86.1753</ele>
        <time>2014-10-31T15:21:17Z</time>
      </trkpt>
      <trkpt lat="59.9804086" lon="15.7930525">
        <ele>90.0206</ele>
        <time>2014-10-31T15:21:22Z</time>
      </trkpt>
      <trkpt lat="59.9802928" lon="15.7932704">
        <ele>96.7499</ele>
        <time>2014-10-31T15:21:27Z</time>
      </trkpt>
      <trkpt lat="59.9801969" lon="15.793395">
        <ele>99.6338</ele>
        <time>2014-10-31T15:21:31Z</time>
      </trkpt>
      <trkpt lat="59.9801266" lon="15.7935566">
        <ele>100.115</ele>
        <time>2014-10-31T15:21:35Z</time>
      </trkpt>
      <trkpt lat="59.9800173" lon="15.7937497">
        <ele>100.595</ele>
        <time>2014-10-31T15:21:40Z</time>
      </trkpt>
      <trkpt lat="59.9798994" lon="15.7939082">
        <ele>100.115</ele>
        <time>2014-10-31T15:21:45Z</time>
      </trkpt>
      <trkpt lat="59.9797899" lon="15.7940408">
        <ele>100.595</ele>
        <time>2014-10-31T15:21:50Z</time>
      </trkpt>
      <trkpt lat="59.979659" lon="15.7941445">
        <ele>100.595</ele>
        <time>2014-10-31T15:21:55Z</time>
      </trkpt>
      <trkpt lat="59.9795301" lon="15.7942298">
        <ele>100.595</ele>
        <time>2014-10-31T15:22:00Z</time>
      </trkpt>
      <trkpt lat="59.9793959" lon="15.7943295">
        <ele>100.595</ele>
        <time>2014-10-31T15:22:06Z</time>
      </trkpt>
      <trkpt lat="59.9792919" lon="15.7944309">
        <ele>100.595</ele>
        <time>2014-10-31T15:22:10Z</time>
      </trkpt>
      <trkpt lat="59.9792945" lon="15.794645">
        <ele>100.115</ele>
        <time>2014-10-31T15:22:15Z</time>
      </trkpt>
      <trkpt lat="59.9793157" lon="15.7946816">
        <ele>100.115</ele>
        <time>2014-10-31T15:22:16Z</time>
      </trkpt>
      <trkpt lat="59.9794881" lon="15.794924">
        <ele>100.115</ele>
        <time>2014-10-31T15:22:23Z</time>
      </trkpt>
      <trkpt lat="59.9796079" lon="15.7950976">
        <ele>101.076</ele>
        <time>2014-10-31T15:22:28Z</time>
      </trkpt>
      <trkpt lat="59.9797507" lon="15.7952898">
        <ele>101.076</ele>
        <time>2014-10-31T15:22:34Z</time>
      </trkpt>
      <trkpt lat="59.979918" lon="15.7954928">
        <ele>100.115</ele>
        <time>2014-10-31T15:22:41Z</time>
      </trkpt>
      <trkpt lat="59.9800266" lon="15.7956611">
        <ele>100.115</ele>
        <time>2014-10-31T15:22:46Z</time>
      </trkpt>
      <trkpt lat="59.9801565" lon="15.7958563">
        <ele>98.6725</ele>
        <time>2014-10-31T15:22:52Z</time>
      </trkpt>
      <trkpt lat="59.9802881" lon="15.7960491">
        <ele>96.2693</ele>
        <time>2014-10-31T15:22:58Z</time>
      </trkpt>
      <trkpt lat="59.9804215" lon="15.7962346">
        <ele>94.8271</ele>
        <time>2014-10-31T15:23:04Z</time>
      </trkpt>
      <trkpt lat="59.9805538" lon="15.796406">
        <ele>91.9432</ele>
        <time>2014-10-31T15:23:10Z</time>
      </trkpt>
      <trkpt lat="59.9806605" lon="15.7965578">
        <ele>90.9819</ele>
        <time>2014-10-31T15:23:15Z</time>
      </trkpt>
      <trkpt lat="59.9807876" lon="15.7967469">
        <ele>90.0206</ele>
        <time>2014-10-31T15:23:21Z</time>
      </trkpt>
      <trkpt lat="59.9809195" lon="15.7969213">
        <ele>87.6172</ele>
        <time>2014-10-31T15:23:27Z</time>
      </trkpt>
      <trkpt lat="59.9810488" lon="15.7971133">
        <ele>86.656</ele>
        <time>2014-10-31T15:23:33Z</time>
      </trkpt>
      <trkpt lat="59.9811908" lon="15.7972759">
        <ele>86.1753</ele>
        <time>2014-10-31T15:23:39Z</time>
      </trkpt>
      <trkpt lat="59.9812888" lon="15.7974124">
        <ele>90.0206</ele>
        <time>2014-10-31T15:23:43Z</time>
      </trkpt>
      <trkpt lat="59.9813987" lon="15.7973038">
        <ele>90.5013</ele>
        <time>2014-10-31T15:23:48Z</time>
      </trkpt>
      <trkpt lat="59.9814547" lon="15.7972632">
        <ele>91.4625</ele>
        <time>2014-10-31T15:23:51Z</time>
      </trkpt>
      <trkpt lat="59.9816388" lon="15.797323">
        <ele>93.8658</ele>
        <time>2014-10-31T15:23:58Z</time>
      </trkpt>
      <trkpt lat="59.981738" lon="15.7973176">
        <ele>94.8271</ele>
        <time>2014-10-31T15:24:02Z</time>
      </trkpt>
      <trkpt lat="59.9818196" lon="15.7971302">
        <ele>95.7885</ele>
        <time>2014-10-31T15:24:07Z</time>
      </trkpt>
      <trkpt lat="59.9818597" lon="15.7969587">
        <ele>95.7885</ele>
        <time>2014-10-31T15:24:11Z</time>
      </trkpt>
      <trkpt lat="59.981871" lon="15.7969158">
        <ele>96.2693</ele>
        <time>2014-10-31T15:24:12Z</time>
      </trkpt>
      <trkpt lat="59.9819349" lon="15.7966805">
        <ele>96.2693</ele>
        <time>2014-10-31T15:24:17Z</time>
      </trkpt>
      <trkpt lat="59.9820522" lon="15.796376">
        <ele>97.2305</ele>
        <time>2014-10-31T15:24:24Z</time>
      </trkpt>
      <trkpt lat="59.9821416" lon="15.7961766">
        <ele>98.1919</ele>
        <time>2014-10-31T15:24:29Z</time>
      </trkpt>
      <trkpt lat="59.9821886" lon="15.7960308">
        <ele>97.7112</ele>
        <time>2014-10-31T15:24:33Z</time>
      </trkpt>
      <trkpt lat="59.9823014" lon="15.7958175">
        <ele>96.2693</ele>
        <time>2014-10-31T15:24:39Z</time>
      </trkpt>
      <trkpt lat="59.9824035" lon="15.7958243">
        <ele>96.7499</ele>
        <time>2014-10-31T15:24:43Z</time>
      </trkpt>
      <trkpt lat="59.9825324" lon="15.7959216">
        <ele>97.7112</ele>
        <time>2014-10-31T15:24:48Z</time>
      </trkpt>
      <trkpt lat="59.9826632" lon="15.7960884">
        <ele>98.1919</ele>
        <time>2014-10-31T15:24:54Z</time>
      </trkpt>
      <trkpt lat="59.982772" lon="15.7962472">
        <ele>97.2305</ele>
        <time>2014-10-31T15:24:59Z</time>
      </trkpt>
      <trkpt lat="59.9828588" lon="15.7963787">
        <ele>95.7885</ele>
        <time>2014-10-31T15:25:03Z</time>
      </trkpt>
      <trkpt lat="59.9830401" lon="15.7966276">
        <ele>92.9045</ele>
        <time>2014-10-31T15:25:11Z</time>
      </trkpt>
      <trkpt lat="59.9831656" lon="15.796769">
        <ele>91.9432</ele>
        <time>2014-10-31T15:25:16Z</time>
      </trkpt>
      <trkpt lat="59.9833195" lon="15.796966">
        <ele>90.0206</ele>
        <time>2014-10-31T15:25:23Z</time>
      </trkpt>
      <trkpt lat="59.983468" lon="15.7971183">
        <ele>89.0593</ele>
        <time>2014-10-31T15:25:29Z</time>
      </trkpt>
      <trkpt lat="59.9836371" lon="15.7972945">
        <ele>88.098</ele>
        <time>2014-10-31T15:25:36Z</time>
      </trkpt>
      <trkpt lat="59.9837587" lon="15.7974254">
        <ele>88.098</ele>
        <time>2014-10-31T15:25:41Z</time>
      </trkpt>
      <trkpt lat="59.9839181" lon="15.7975794">
        <ele>87.6172</ele>
        <time>2014-10-31T15:25:47Z</time>
      </trkpt>
      <trkpt lat="59.9840934" lon="15.7978004">
        <ele>90.0206</ele>
        <time>2014-10-31T15:25:54Z</time>
      </trkpt>
      <trkpt lat="59.9842678" lon="15.7979861">
        <ele>91.4625</ele>
        <time>2014-10-31T15:26:01Z</time>
      </trkpt>
      <trkpt lat="59.9843984" lon="15.7979202">
        <ele>90.0206</ele>
        <time>2014-10-31T15:26:06Z</time>
      </trkpt>
      <trkpt lat="59.9844801" lon="15.7976843">
        <ele>90.5013</ele>
        <time>2014-10-31T15:26:11Z</time>
      </trkpt>
      <trkpt lat="59.9845575" lon="15.7974629">
        <ele>91.4625</ele>
        <time>2014-10-31T15:26:16Z</time>
      </trkpt>
      <trkpt lat="59.9846706" lon="15.7971857">
        <ele>91.4625</ele>
        <time>2014-10-31T15:26:22Z</time>
      </trkpt>
      <trkpt lat="59.9847549" lon="15.7969239">
        <ele>92.424</ele>
        <time>2014-10-31T15:26:27Z</time>
      </trkpt>
      <trkpt lat="59.984816" lon="15.7967573">
        <ele>91.9432</ele>
        <time>2014-10-31T15:26:31Z</time>
      </trkpt>
      <trkpt lat="59.9849549" lon="15.7966164">
        <ele>91.4625</ele>
        <time>2014-10-31T15:26:37Z</time>
      </trkpt>
      <trkpt lat="59.9850785" lon="15.7965253">
        <ele>89.5399</ele>
        <time>2014-10-31T15:26:42Z</time>
      </trkpt>
      <trkpt lat="59.9852035" lon="15.7964273">
        <ele>89.0593</ele>
        <time>2014-10-31T15:26:47Z</time>
      </trkpt>
      <trkpt lat="59.9853215" lon="15.7963259">
        <ele>90.9819</ele>
        <time>2014-10-31T15:26:52Z</time>
      </trkpt>
      <trkpt lat="59.9854149" lon="15.7962455">
        <ele>88.5787</ele>
        <time>2014-10-31T15:26:56Z</time>
      </trkpt>
      <trkpt lat="59.9855366" lon="15.7961476">
        <ele>87.6172</ele>
        <time>2014-10-31T15:27:01Z</time>
      </trkpt>
      <trkpt lat="59.985635" lon="15.7960541">
        <ele>87.1366</ele>
        <time>2014-10-31T15:27:05Z</time>
      </trkpt>
      <trkpt lat="59.9858229" lon="15.7959088">
        <ele>90.9819</ele>
        <time>2014-10-31T15:27:12Z</time>
      </trkpt>
      <trkpt lat="59.9859495" lon="15.7957853">
        <ele>90.9819</ele>
        <time>2014-10-31T15:27:17Z</time>
      </trkpt>
      <trkpt lat="59.9861084" lon="15.795585">
        <ele>91.9432</ele>
        <time>2014-10-31T15:27:24Z</time>
      </trkpt>
      <trkpt lat="59.9861792" lon="15.7954721">
        <ele>91.4625</ele>
        <time>2014-10-31T15:27:28Z</time>
      </trkpt>
      <trkpt lat="59.9863182" lon="15.7953167">
        <ele>91.9432</ele>
        <time>2014-10-31T15:27:34Z</time>
      </trkpt>
      <trkpt lat="59.986442" lon="15.7952535">
        <ele>92.424</ele>
        <time>2014-10-31T15:27:39Z</time>
      </trkpt>
      <trkpt lat="59.9865701" lon="15.7951876">
        <ele>92.9045</ele>
        <time>2014-10-31T15:27:44Z</time>
      </trkpt>
      <trkpt lat="59.9867016" lon="15.7951538">
        <ele>93.3851</ele>
        <time>2014-10-31T15:27:49Z</time>
      </trkpt>
      <trkpt lat="59.9868477" lon="15.7951213">
        <ele>92.9045</ele>
        <time>2014-10-31T15:27:54Z</time>
      </trkpt>
      <trkpt lat="59.9870331" lon="15.7952301">
        <ele>92.9045</ele>
        <time>2014-10-31T15:28:01Z</time>
      </trkpt>
      <trkpt lat="59.9871568" lon="15.7953846">
        <ele>92.9045</ele>
        <time>2014-10-31T15:28:07Z</time>
      </trkpt>
      <trkpt lat="59.9872631" lon="15.7955315">
        <ele>89.0593</ele>
        <time>2014-10-31T15:28:12Z</time>
      </trkpt>
      <trkpt lat="59.9873852" lon="15.7956565">
        <ele>87.1366</ele>
        <time>2014-10-31T15:28:17Z</time>
      </trkpt>
      <trkpt lat="59.9875413" lon="15.795854">
        <ele>83.772</ele>
        <time>2014-10-31T15:28:24Z</time>
      </trkpt>
      <trkpt lat="59.9876402" lon="15.7961196">
        <ele>88.5787</ele>
        <time>2014-10-31T15:28:29Z</time>
      </trkpt>
      <trkpt lat="59.987695" lon="15.7963789">
        <ele>93.3851</ele>
        <time>2014-10-31T15:28:33Z</time>
      </trkpt>
      <trkpt lat="59.9878199" lon="15.796719">
        <ele>98.1919</ele>
        <time>2014-10-31T15:28:39Z</time>
      </trkpt>
      <trkpt lat="59.9878835" lon="15.7968531">
        <ele>99.1531</ele>
        <time>2014-10-31T15:28:42Z</time>
      </trkpt>
      <trkpt lat="59.9879992" lon="15.7970028">
        <ele>99.1531</ele>
        <time>2014-10-31T15:28:47Z</time>
      </trkpt>
      <trkpt lat="59.9880733" lon="15.7970832">
        <ele>96.2693</ele>
        <time>2014-10-31T15:28:51Z</time>
      </trkpt>
      <trkpt lat="59.9880119" lon="15.7972256">
        <ele>90.9819</ele>
        <time>2014-10-31T15:28:56Z</time>
      </trkpt>
      <trkpt lat="59.9878817" lon="15.7974401">
        <ele>87.6172</ele>
        <time>2014-10-31T15:29:02Z</time>
      </trkpt>
      <trkpt lat="59.9878225" lon="15.7977052">
        <ele>88.098</ele>
        <time>2014-10-31T15:29:07Z</time>
      </trkpt>
      <trkpt lat="59.9877827" lon="15.7980725">
        <ele>89.5399</ele>
        <time>2014-10-31T15:29:13Z</time>
      </trkpt>
      <trkpt lat="59.9877051" lon="15.7983196">
        <ele>92.424</ele>
        <time>2014-10-31T15:29:18Z</time>
      </trkpt>
      <trkpt lat="59.9876753" lon="15.7984015">
        <ele>93.8658</ele>
        <time>2014-10-31T15:29:20Z</time>
      </trkpt>
      <trkpt lat="59.9875556" lon="15.7985687">
        <ele>96.7499</ele>
        <time>2014-10-31T15:29:25Z</time>
      </trkpt>
      <trkpt lat="59.9875344" lon="15.7985974">
        <ele>97.2305</ele>
        <time>2014-10-31T15:29:26Z</time>
      </trkpt>
      <trkpt lat="59.9874304" lon="15.7987981">
        <ele>99.1531</ele>
        <time>2014-10-31T15:29:31Z</time>
      </trkpt>
      <trkpt lat="59.9873688" lon="15.798994">
        <ele>99.6338</ele>
        <time>2014-10-31T15:29:36Z</time>
      </trkpt>
      <trkpt lat="59.9873685" lon="15.7990464">
        <ele>100.115</ele>
        <time>2014-10-31T15:29:37Z</time>
      </trkpt>
      <trkpt lat="59.9873634" lon="15.7991686">
        <ele>101.076</ele>
        <time>2014-10-31T15:29:39Z</time>
      </trkpt>
      <trkpt lat="59.9873691" lon="15.7993945">
        <ele>99.6338</ele>
        <time>2014-10-31T15:29:43Z</time>
      </trkpt>
      <trkpt lat="59.9873856" lon="15.7994561">
        <ele>97.7112</ele>
        <time>2014-10-31T15:29:44Z</time>
      </trkpt>
      <trkpt lat="59.9874338" lon="15.7998975">
        <ele>93.8658</ele>
        <time>2014-10-31T15:29:50Z</time>
      </trkpt>
      <trkpt lat="59.9875165" lon="15.8001586">
        <ele>90.9819</ele>
        <time>2014-10-31T15:29:55Z</time>
      </trkpt>
      <trkpt lat="59.987526" lon="15.8003621">
        <ele>90.9819</ele>
        <time>2014-10-31T15:29:59Z</time>
      </trkpt>
      <trkpt lat="59.9875038" lon="15.8006135">
        <ele>88.5787</ele>
        <time>2014-10-31T15:30:05Z</time>
      </trkpt>
      <trkpt lat="59.9875037" lon="15.8006584">
        <ele>88.5787</ele>
        <time>2014-10-31T15:30:06Z</time>
      </trkpt>
      <trkpt lat="59.987535" lon="15.8008533">
        <ele>84.2527</ele>
        <time>2014-10-31T15:30:11Z</time>
      </trkpt>
      <trkpt lat="59.9876245" lon="15.8010195">
        <ele>80.8882</ele>
        <time>2014-10-31T15:30:16Z</time>
      </trkpt>
      <trkpt lat="59.9877203" lon="15.8011624">
        <ele>76.5621</ele>
        <time>2014-10-31T15:30:21Z</time>
      </trkpt>
      <trkpt lat="59.9878132" lon="15.801381">
        <ele>71.7555</ele>
        <time>2014-10-31T15:30:27Z</time>
      </trkpt>
      <trkpt lat="59.9878405" lon="15.8014557">
        <ele>70.7942</ele>
        <time>2014-10-31T15:30:29Z</time>
      </trkpt>
      <trkpt lat="59.9879405" lon="15.8017279">
        <ele>66.4683</ele>
        <time>2014-10-31T15:30:36Z</time>
      </trkpt>
      <trkpt lat="59.9879834" lon="15.8018073">
        <ele>65.0264</ele>
        <time>2014-10-31T15:30:39Z</time>
      </trkpt>
      <trkpt lat="59.988042" lon="15.8019766">
        <ele>62.6229</ele>
        <time>2014-10-31T15:30:44Z</time>
      </trkpt>
      <trkpt lat="59.9880392" lon="15.8021783">
        <ele>61.6617</ele>
        <time>2014-10-31T15:30:48Z</time>
      </trkpt>
      <trkpt lat="59.9880462" lon="15.8024988">
        <ele>64.5457</ele>
        <time>2014-10-31T15:30:52Z</time>
      </trkpt>
      <trkpt lat="59.9880639" lon="15.8025366">
        <ele>64.0651</ele>
        <time>2014-10-31T15:30:53Z</time>
      </trkpt>
      <trkpt lat="59.988185" lon="15.8027051">
        <ele>61.6617</ele>
        <time>2014-10-31T15:30:59Z</time>
      </trkpt>
      <trkpt lat="59.988202" lon="15.8029615">
        <ele>65.0264</ele>
        <time>2014-10-31T15:31:03Z</time>
      </trkpt>
      <trkpt lat="59.9881561" lon="15.8032216">
        <ele>71.7555</ele>
        <time>2014-10-31T15:31:06Z</time>
      </trkpt>
      <trkpt lat="59.9880505" lon="15.8033503">
        <ele>72.2362</ele>
        <time>2014-10-31T15:31:11Z</time>
      </trkpt>
      <trkpt lat="59.9880137" lon="15.8033443">
        <ele>72.7169</ele>
        <time>2014-10-31T15:31:13Z</time>
      </trkpt>
      <trkpt lat="59.9878995" lon="15.8031913">
        <ele>72.2362</ele>
        <time>2014-10-31T15:31:18Z</time>
      </trkpt>
      <trkpt lat="59.9877742" lon="15.803149">
        <ele>69.3523</ele>
        <time>2014-10-31T15:31:23Z</time>
      </trkpt>
      <trkpt lat="59.9876541" lon="15.8032371">
        <ele>68.3909</ele>
        <time>2014-10-31T15:31:28Z</time>
      </trkpt>
      <trkpt lat="59.9875392" lon="15.8033959">
        <ele>69.8329</ele>
        <time>2014-10-31T15:31:34Z</time>
      </trkpt>
      <trkpt lat="59.9874287" lon="15.8035825">
        <ele>69.8329</ele>
        <time>2014-10-31T15:31:40Z</time>
      </trkpt>
      <trkpt lat="59.9872879" lon="15.8037198">
        <ele>72.7169</ele>
        <time>2014-10-31T15:31:45Z</time>
      </trkpt>
      <trkpt lat="59.9871351" lon="15.8038167">
        <ele>75.1202</ele>
        <time>2014-10-31T15:31:50Z</time>
      </trkpt>
      <trkpt lat="59.9869886" lon="15.8038918">
        <ele>76.5621</ele>
        <time>2014-10-31T15:31:55Z</time>
      </trkpt>
      <trkpt lat="59.9868664" lon="15.8039643">
        <ele>77.5234</ele>
        <time>2014-10-31T15:31:59Z</time>
      </trkpt>
      <trkpt lat="59.9867402" lon="15.8041161">
        <ele>77.5234</ele>
        <time>2014-10-31T15:32:04Z</time>
      </trkpt>
      <trkpt lat="59.9866042" lon="15.804269">
        <ele>76.0814</ele>
        <time>2014-10-31T15:32:09Z</time>
      </trkpt>
      <trkpt lat="59.9864757" lon="15.8045014">
        <ele>76.5621</ele>
        <time>2014-10-31T15:32:16Z</time>
      </trkpt>
      <trkpt lat="59.9864187" lon="15.804645">
        <ele>76.0814</ele>
        <time>2014-10-31T15:32:20Z</time>
      </trkpt>
      <trkpt lat="59.9863306" lon="15.8049012">
        <ele>76.5621</ele>
        <time>2014-10-31T15:32:26Z</time>
      </trkpt>
      <trkpt lat="59.986315" lon="15.80495">
        <ele>76.5621</ele>
        <time>2014-10-31T15:32:27Z</time>
      </trkpt>
      <trkpt lat="59.9862659" lon="15.805125">
        <ele>76.0814</ele>
        <time>2014-10-31T15:32:31Z</time>
      </trkpt>
      <trkpt lat="59.9862065" lon="15.8053048">
        <ele>76.5621</ele>
        <time>2014-10-31T15:32:35Z</time>
      </trkpt>
      <trkpt lat="59.9861023" lon="15.8055935">
        <ele>76.0814</ele>
        <time>2014-10-31T15:32:41Z</time>
      </trkpt>
      <trkpt lat="59.9861727" lon="15.8057919">
        <ele>75.6008</ele>
        <time>2014-10-31T15:32:46Z</time>
      </trkpt>
      <trkpt lat="59.9861904" lon="15.8058248">
        <ele>75.6008</ele>
        <time>2014-10-31T15:32:47Z</time>
      </trkpt>
      <trkpt lat="59.9863239" lon="15.8060267">
        <ele>74.1588</ele>
        <time>2014-10-31T15:32:53Z</time>
      </trkpt>
      <trkpt lat="59.9864192" lon="15.8062078">
        <ele>74.6395</ele>
        <time>2014-10-31T15:32:58Z</time>
      </trkpt>
      <trkpt lat="59.9865197" lon="15.8064439">
        <ele>78.004</ele>
        <time>2014-10-31T15:33:04Z</time>
      </trkpt>
      <trkpt lat="59.9865962" lon="15.8065242">
        <ele>78.9655</ele>
        <time>2014-10-31T15:33:08Z</time>
      </trkpt>
      <trkpt lat="59.9867364" lon="15.806605">
        <ele>77.5234</ele>
        <time>2014-10-31T15:33:13Z</time>
      </trkpt>
      <trkpt lat="59.9868736" lon="15.8066783">
        <ele>77.0428</ele>
        <time>2014-10-31T15:33:18Z</time>
      </trkpt>
      <trkpt lat="59.9870072" lon="15.8067635">
        <ele>76.5621</ele>
        <time>2014-10-31T15:33:23Z</time>
      </trkpt>
      <trkpt lat="59.9871388" lon="15.8068267">
        <ele>76.0814</ele>
        <time>2014-10-31T15:33:28Z</time>
      </trkpt>
      <trkpt lat="59.9872275" lon="15.8069118">
        <ele>74.6395</ele>
        <time>2014-10-31T15:33:32Z</time>
      </trkpt>
      <trkpt lat="59.9873076" lon="15.8070564">
        <ele>74.1588</ele>
        <time>2014-10-31T15:33:36Z</time>
      </trkpt>
      <trkpt lat="59.9874025" lon="15.8072391">
        <ele>72.7169</ele>
        <time>2014-10-31T15:33:41Z</time>
      </trkpt>
      <trkpt lat="59.9874583" lon="15.8073644">
        <ele>70.7942</ele>
        <time>2014-10-31T15:33:45Z</time>
      </trkpt>
      <trkpt lat="59.9875167" lon="15.8075898">
        <ele>70.3135</ele>
        <time>2014-10-31T15:33:50Z</time>
      </trkpt>
      <trkpt lat="59.9875708" lon="15.8078194">
        <ele>69.8329</ele>
        <time>2014-10-31T15:33:55Z</time>
      </trkpt>
      <trkpt lat="59.9875195" lon="15.8082265">
        <ele>74.6395</ele>
        <time>2014-10-31T15:34:01Z</time>
      </trkpt>
      <trkpt lat="59.9874838" lon="15.8085462">
        <ele>78.4847</ele>
        <time>2014-10-31T15:34:06Z</time>
      </trkpt>
      <trkpt lat="59.9874722" lon="15.8087279">
        <ele>79.446</ele>
        <time>2014-10-31T15:34:09Z</time>
      </trkpt>
      <trkpt lat="59.9874577" lon="15.8091301">
        <ele>79.9266</ele>
        <time>2014-10-31T15:34:16Z</time>
      </trkpt>
      <trkpt lat="59.9874497" lon="15.8094273">
        <ele>78.004</ele>
        <time>2014-10-31T15:34:22Z</time>
      </trkpt>
      <trkpt lat="59.9874434" lon="15.8096128">
        <ele>76.0814</ele>
        <time>2014-10-31T15:34:26Z</time>
      </trkpt>
      <trkpt lat="59.9874395" lon="15.8099432">
        <ele>76.5621</ele>
        <time>2014-10-31T15:34:32Z</time>
      </trkpt>
      <trkpt lat="59.9874442" lon="15.8103267">
        <ele>81.8494</ele>
        <time>2014-10-31T15:34:38Z</time>
      </trkpt>
      <trkpt lat="59.9874651" lon="15.8105846">
        <ele>81.8494</ele>
        <time>2014-10-31T15:34:43Z</time>
      </trkpt>
      <trkpt lat="59.9875053" lon="15.8107991">
        <ele>81.8494</ele>
        <time>2014-10-31T15:34:48Z</time>
      </trkpt>
      <trkpt lat="59.9875248" lon="15.8108866">
        <ele>81.3688</ele>
        <time>2014-10-31T15:34:50Z</time>
      </trkpt>
      <trkpt lat="59.9875739" lon="15.8112196">
        <ele>81.8494</ele>
        <time>2014-10-31T15:34:57Z</time>
      </trkpt>
      <trkpt lat="59.9876058" lon="15.811487">
        <ele>81.3688</ele>
        <time>2014-10-31T15:35:02Z</time>
      </trkpt>
      <trkpt lat="59.9876291" lon="15.8117112">
        <ele>80.8882</ele>
        <time>2014-10-31T15:35:07Z</time>
      </trkpt>
      <trkpt lat="59.9876469" lon="15.8119341">
        <ele>80.4075</ele>
        <time>2014-10-31T15:35:11Z</time>
      </trkpt>
      <trkpt lat="59.9876982" lon="15.812264">
        <ele>81.3688</ele>
        <time>2014-10-31T15:35:17Z</time>
      </trkpt>
      <trkpt lat="59.9877293" lon="15.8125367">
        <ele>81.8494</ele>
        <time>2014-10-31T15:35:22Z</time>
      </trkpt>
      <trkpt lat="59.9877376" lon="15.8126523">
        <ele>81.8494</ele>
        <time>2014-10-31T15:35:24Z</time>
      </trkpt>
      <trkpt lat="59.987785" lon="15.8130321">
        <ele>85.214</ele>
        <time>2014-10-31T15:35:30Z</time>
      </trkpt>
      <trkpt lat="59.9878277" lon="15.8133907">
        <ele>85.214</ele>
        <time>2014-10-31T15:35:36Z</time>
      </trkpt>
      <trkpt lat="59.9878438" lon="15.8136889">
        <ele>84.7334</ele>
        <time>2014-10-31T15:35:41Z</time>
      </trkpt>
      <trkpt lat="59.9878389" lon="15.8139898">
        <ele>84.2527</ele>
        <time>2014-10-31T15:35:46Z</time>
      </trkpt>
      <trkpt lat="59.98778" lon="15.8141909">
        <ele>83.772</ele>
        <time>2014-10-31T15:35:50Z</time>
      </trkpt>
      <trkpt lat="59.9876381" lon="15.8143381">
        <ele>81.8494</ele>
        <time>2014-10-31T15:35:55Z</time>
      </trkpt>
      <trkpt lat="59.9874924" lon="15.8144085">
        <ele>81.3688</ele>
        <time>2014-10-31T15:36:00Z</time>
      </trkpt>
      <trkpt lat="59.9873473" lon="15.8145116">
        <ele>79.446</ele>
        <time>2014-10-31T15:36:05Z</time>
      </trkpt>
      <trkpt lat="59.9872305" lon="15.8146452">
        <ele>77.5234</ele>
        <time>2014-10-31T15:36:10Z</time>
      </trkpt>
      <trkpt lat="59.9870563" lon="15.8148189">
        <ele>75.1202</ele>
        <time>2014-10-31T15:36:17Z</time>
      </trkpt>
      <trkpt lat="59.9869574" lon="15.8149461">
        <ele>74.6395</ele>
        <time>2014-10-31T15:36:21Z</time>
      </trkpt>
      <trkpt lat="59.9868606" lon="15.8150657">
        <ele>74.6395</ele>
        <time>2014-10-31T15:36:25Z</time>
      </trkpt>
      <trkpt lat="59.9867136" lon="15.8152475">
        <ele>74.1588</ele>
        <time>2014-10-31T15:36:31Z</time>
      </trkpt>
      <trkpt lat="59.9866314" lon="15.8154199">
        <ele>73.6782</ele>
        <time>2014-10-31T15:36:35Z</time>
      </trkpt>
      <trkpt lat="59.9865294" lon="15.8156173">
        <ele>72.7169</ele>
        <time>2014-10-31T15:36:40Z</time>
      </trkpt>
      <trkpt lat="59.9863781" lon="15.8157774">
        <ele>74.1588</ele>
        <time>2014-10-31T15:36:46Z</time>
      </trkpt>
      <trkpt lat="59.9862276" lon="15.8158138">
        <ele>75.6008</ele>
        <time>2014-10-31T15:36:51Z</time>
      </trkpt>
      <trkpt lat="59.9860801" lon="15.8157704">
        <ele>74.6395</ele>
        <time>2014-10-31T15:36:56Z</time>
      </trkpt>
      <trkpt lat="59.9859498" lon="15.8156271">
        <ele>73.1976</ele>
        <time>2014-10-31T15:37:01Z</time>
      </trkpt>
      <trkpt lat="59.9858423" lon="15.8154414">
        <ele>71.7555</ele>
        <time>2014-10-31T15:37:06Z</time>
      </trkpt>
      <trkpt lat="59.9857454" lon="15.8152186">
        <ele>70.7942</ele>
        <time>2014-10-31T15:37:11Z</time>
      </trkpt>
      <trkpt lat="59.9856665" lon="15.8150368">
        <ele>71.7555</ele>
        <time>2014-10-31T15:37:15Z</time>
      </trkpt>
      <trkpt lat="59.9855904" lon="15.8148567">
        <ele>71.2749</ele>
        <time>2014-10-31T15:37:19Z</time>
      </trkpt>
      <trkpt lat="59.9855091" lon="15.8146297">
        <ele>73.6782</ele>
        <time>2014-10-31T15:37:24Z</time>
      </trkpt>
      <trkpt lat="59.9854103" lon="15.8142722">
        <ele>74.6395</ele>
        <time>2014-10-31T15:37:31Z</time>
      </trkpt>
      <trkpt lat="59.9853563" lon="15.8140058">
        <ele>75.6008</ele>
        <time>2014-10-31T15:37:36Z</time>
      </trkpt>
      <trkpt lat="59.9853361" lon="15.8137442">
        <ele>77.0428</ele>
        <time>2014-10-31T15:37:41Z</time>
      </trkpt>
      <trkpt lat="59.9853488" lon="15.8134553">
        <ele>78.9655</ele>
        <time>2014-10-31T15:37:46Z</time>
      </trkpt>
      <trkpt lat="59.9852932" lon="15.8132664">
        <ele>79.446</ele>
        <time>2014-10-31T15:37:50Z</time>
      </trkpt>
      <trkpt lat="59.9852144" lon="15.8129808">
        <ele>79.446</ele>
        <time>2014-10-31T15:37:56Z</time>
      </trkpt>
      <trkpt lat="59.9851709" lon="15.8126991">
        <ele>80.8882</ele>
        <time>2014-10-31T15:38:01Z</time>
      </trkpt>
      <trkpt lat="59.9851273" lon="15.8124151">
        <ele>81.8494</ele>
        <time>2014-10-31T15:38:07Z</time>
      </trkpt>
      <trkpt lat="59.9851028" lon="15.81221">
        <ele>81.8494</ele>
        <time>2014-10-31T15:38:11Z</time>
      </trkpt>
      <trkpt lat="59.9851313" lon="15.8120054">
        <ele>80.8882</ele>
        <time>2014-10-31T15:38:15Z</time>
      </trkpt>
      <trkpt lat="59.9851615" lon="15.8117739">
        <ele>80.4075</ele>
        <time>2014-10-31T15:38:19Z</time>
      </trkpt>
      <trkpt lat="59.9851619" lon="15.8117241">
        <ele>80.4075</ele>
        <time>2014-10-31T15:38:20Z</time>
      </trkpt>
      <trkpt lat="59.9850839" lon="15.8115245">
        <ele>77.5234</ele>
        <time>2014-10-31T15:38:25Z</time>
      </trkpt>
      <trkpt lat="59.984957" lon="15.8114781">
        <ele>75.6008</ele>
        <time>2014-10-31T15:38:29Z</time>
      </trkpt>
      <trkpt lat="59.9848958" lon="15.8115133">
        <ele>75.1202</ele>
        <time>2014-10-31T15:38:31Z</time>
      </trkpt>
      <trkpt lat="59.9847058" lon="15.811689">
        <ele>75.1202</ele>
        <time>2014-10-31T15:38:38Z</time>
      </trkpt>
      <trkpt lat="59.9846047" lon="15.8118389">
        <ele>74.6395</ele>
        <time>2014-10-31T15:38:43Z</time>
      </trkpt>
      <trkpt lat="59.984542" lon="15.8120987">
        <ele>77.0428</ele>
        <time>2014-10-31T15:38:48Z</time>
      </trkpt>
      <trkpt lat="59.9845321" lon="15.8123497">
        <ele>78.004</ele>
        <time>2014-10-31T15:38:52Z</time>
      </trkpt>
      <trkpt lat="59.9845807" lon="15.8125695">
        <ele>78.004</ele>
        <time>2014-10-31T15:38:56Z</time>
      </trkpt>
      <trkpt lat="59.9846526" lon="15.8128596">
        <ele>77.5234</ele>
        <time>2014-10-31T15:39:02Z</time>
      </trkpt>
      <trkpt lat="59.9847171" lon="15.8131273">
        <ele>76.0814</ele>
        <time>2014-10-31T15:39:07Z</time>
      </trkpt>
      <trkpt lat="59.9847684" lon="15.8134718">
        <ele>76.0814</ele>
        <time>2014-10-31T15:39:13Z</time>
      </trkpt>
      <trkpt lat="59.9848005" lon="15.8137859">
        <ele>77.0428</ele>
        <time>2014-10-31T15:39:18Z</time>
      </trkpt>
      <trkpt lat="59.9848538" lon="15.8140503">
        <ele>77.5234</ele>
        <time>2014-10-31T15:39:23Z</time>
      </trkpt>
      <trkpt lat="59.9848978" lon="15.8143252">
        <ele>75.6008</ele>
        <time>2014-10-31T15:39:28Z</time>
      </trkpt>
      <trkpt lat="59.9849377" lon="15.8146151">
        <ele>75.1202</ele>
        <time>2014-10-31T15:39:33Z</time>
      </trkpt>
      <trkpt lat="59.9849906" lon="15.814897">
        <ele>74.1588</ele>
        <time>2014-10-31T15:39:38Z</time>
      </trkpt>
      <trkpt lat="59.9850588" lon="15.8152652">
        <ele>74.6395</ele>
        <time>2014-10-31T15:39:44Z</time>
      </trkpt>
      <trkpt lat="59.9851432" lon="15.8155376">
        <ele>74.1588</ele>
        <time>2014-10-31T15:39:49Z</time>
      </trkpt>
      <trkpt lat="59.9852641" lon="15.8158193">
        <ele>73.6782</ele>
        <time>2014-10-31T15:39:55Z</time>
      </trkpt>
      <trkpt lat="59.9853661" lon="15.8160615">
        <ele>74.6395</ele>
        <time>2014-10-31T15:40:00Z</time>
      </trkpt>
      <trkpt lat="59.9854847" lon="15.8162714">
        <ele>74.6395</ele>
        <time>2014-10-31T15:40:05Z</time>
      </trkpt>
      <trkpt lat="59.9856292" lon="15.816372">
        <ele>74.1588</ele>
        <time>2014-10-31T15:40:10Z</time>
      </trkpt>
      <trkpt lat="59.9858158" lon="15.8164423">
        <ele>73.1976</ele>
        <time>2014-10-31T15:40:16Z</time>
      </trkpt>
      <trkpt lat="59.9859721" lon="15.8165059">
        <ele>73.6782</ele>
        <time>2014-10-31T15:40:21Z</time>
      </trkpt>
      <trkpt lat="59.9861549" lon="15.8165271">
        <ele>74.6395</ele>
        <time>2014-10-31T15:40:27Z</time>
      </trkpt>
      <trkpt lat="59.9863078" lon="15.8164727">
        <ele>74.6395</ele>
        <time>2014-10-31T15:40:32Z</time>
      </trkpt>
      <trkpt lat="59.9864856" lon="15.8163467">
        <ele>75.1202</ele>
        <time>2014-10-31T15:40:38Z</time>
      </trkpt>
      <trkpt lat="59.9866622" lon="15.816208">
        <ele>75.6008</ele>
        <time>2014-10-31T15:40:44Z</time>
      </trkpt>
      <trkpt lat="59.9867751" lon="15.8161374">
        <ele>75.6008</ele>
        <time>2014-10-31T15:40:48Z</time>
      </trkpt>
      <trkpt lat="59.9868264" lon="15.8163784">
        <ele>76.5621</ele>
        <time>2014-10-31T15:40:53Z</time>
      </trkpt>
      <trkpt lat="59.9868398" lon="15.8167525">
        <ele>77.5234</ele>
        <time>2014-10-31T15:40:59Z</time>
      </trkpt>
      <trkpt lat="59.9868386" lon="15.8169908">
        <ele>78.9655</ele>
        <time>2014-10-31T15:41:03Z</time>
      </trkpt>
      <trkpt lat="59.9868166" lon="15.8173281">
        <ele>80.4075</ele>
        <time>2014-10-31T15:41:08Z</time>
      </trkpt>
      <trkpt lat="59.9867642" lon="15.8176521">
        <ele>80.8882</ele>
        <time>2014-10-31T15:41:13Z</time>
      </trkpt>
      <trkpt lat="59.9866451" lon="15.8180048">
        <ele>80.8882</ele>
        <time>2014-10-31T15:41:19Z</time>
      </trkpt>
      <trkpt lat="59.986531" lon="15.8183276">
        <ele>80.8882</ele>
        <time>2014-10-31T15:41:25Z</time>
      </trkpt>
      <trkpt lat="59.9864799" lon="15.8186033">
        <ele>81.3688</ele>
        <time>2014-10-31T15:41:30Z</time>
      </trkpt>
      <trkpt lat="59.9863923" lon="15.8188051">
        <ele>79.446</ele>
        <time>2014-10-31T15:41:35Z</time>
      </trkpt>
      <trkpt lat="59.9863213" lon="15.8190344">
        <ele>78.004</ele>
        <time>2014-10-31T15:41:40Z</time>
      </trkpt>
      <trkpt lat="59.9863051" lon="15.8192937">
        <ele>78.004</ele>
        <time>2014-10-31T15:41:45Z</time>
      </trkpt>
      <trkpt lat="59.986269" lon="15.8195607">
        <ele>78.004</ele>
        <time>2014-10-31T15:41:50Z</time>
      </trkpt>
      <trkpt lat="59.9861918" lon="15.8195967">
        <ele>76.5621</ele>
        <time>2014-10-31T15:41:53Z</time>
      </trkpt>
      <trkpt lat="59.9861675" lon="15.8195915">
        <ele>76.0814</ele>
        <time>2014-10-31T15:41:54Z</time>
      </trkpt>
      <trkpt lat="59.9859789" lon="15.8195026">
        <ele>72.2362</ele>
        <time>2014-10-31T15:42:00Z</time>
      </trkpt>
      <trkpt lat="59.9858365" lon="15.8194335">
        <ele>69.8329</ele>
        <time>2014-10-31T15:42:04Z</time>
      </trkpt>
      <trkpt lat="59.9857738" lon="15.8194237">
        <ele>68.8716</ele>
        <time>2014-10-31T15:42:06Z</time>
      </trkpt>
      <trkpt lat="59.9856778" lon="15.8196398">
        <ele>68.3909</ele>
        <time>2014-10-31T15:42:11Z</time>
      </trkpt>
      <trkpt lat="59.9856095" lon="15.8199186">
        <ele>69.3523</ele>
        <time>2014-10-31T15:42:16Z</time>
      </trkpt>
      <trkpt lat="59.9855246" lon="15.8202569">
        <ele>69.8329</ele>
        <time>2014-10-31T15:42:22Z</time>
      </trkpt>
      <trkpt lat="59.9854298" lon="15.8204066">
        <ele>69.8329</ele>
        <time>2014-10-31T15:42:26Z</time>
      </trkpt>
      <trkpt lat="59.9853103" lon="15.8203843">
        <ele>69.8329</ele>
        <time>2014-10-31T15:42:30Z</time>
      </trkpt>
      <trkpt lat="59.9851758" lon="15.8203638">
        <ele>69.8329</ele>
        <time>2014-10-31T15:42:34Z</time>
      </trkpt>
      <trkpt lat="59.9850139" lon="15.8204318">
        <ele>71.2749</ele>
        <time>2014-10-31T15:42:39Z</time>
      </trkpt>
      <trkpt lat="59.9848708" lon="15.8206091">
        <ele>71.7555</ele>
        <time>2014-10-31T15:42:44Z</time>
      </trkpt>
      <trkpt lat="59.9848155" lon="15.8208442">
        <ele>73.1976</ele>
        <time>2014-10-31T15:42:48Z</time>
      </trkpt>
      <trkpt lat="59.9848158" lon="15.8211137">
        <ele>74.1588</ele>
        <time>2014-10-31T15:42:52Z</time>
      </trkpt>
      <trkpt lat="59.9848361" lon="15.8214357">
        <ele>74.6395</ele>
        <time>2014-10-31T15:42:57Z</time>
      </trkpt>
      <trkpt lat="59.9848543" lon="15.8217694">
        <ele>75.1202</ele>
        <time>2014-10-31T15:43:02Z</time>
      </trkpt>
      <trkpt lat="59.9848854" lon="15.8220201">
        <ele>75.1202</ele>
        <time>2014-10-31T15:43:06Z</time>
      </trkpt>
      <trkpt lat="59.9849171" lon="15.8223376">
        <ele>74.6395</ele>
        <time>2014-10-31T15:43:11Z</time>
      </trkpt>
      <trkpt lat="59.9849479" lon="15.822622">
        <ele>75.1202</ele>
        <time>2014-10-31T15:43:16Z</time>
      </trkpt>
      <trkpt lat="59.9849756" lon="15.8229663">
        <ele>76.5621</ele>
        <time>2014-10-31T15:43:22Z</time>
      </trkpt>
      <trkpt lat="59.9850102" lon="15.8233369">
        <ele>77.5234</ele>
        <time>2014-10-31T15:43:28Z</time>
      </trkpt>
      <trkpt lat="59.9849932" lon="15.8235809">
        <ele>78.4847</ele>
        <time>2014-10-31T15:43:32Z</time>
      </trkpt>
      <trkpt lat="59.9849206" lon="15.823771">
        <ele>78.9655</ele>
        <time>2014-10-31T15:43:36Z</time>
      </trkpt>
      <trkpt lat="59.9848195" lon="15.8239125">
        <ele>78.9655</ele>
        <time>2014-10-31T15:43:40Z</time>
      </trkpt>
      <trkpt lat="59.9847052" lon="15.8240963">
        <ele>78.4847</ele>
        <time>2014-10-31T15:43:45Z</time>
      </trkpt>
      <trkpt lat="59.9845353" lon="15.8243043">
        <ele>78.004</ele>
        <time>2014-10-31T15:43:51Z</time>
      </trkpt>
      <trkpt lat="59.9843767" lon="15.8244236">
        <ele>77.5234</ele>
        <time>2014-10-31T15:43:56Z</time>
      </trkpt>
      <trkpt lat="59.9841995" lon="15.8245495">
        <ele>77.5234</ele>
        <time>2014-10-31T15:44:02Z</time>
      </trkpt>
      <trkpt lat="59.9840592" lon="15.8245734">
        <ele>76.5621</ele>
        <time>2014-10-31T15:44:06Z</time>
      </trkpt>
      <trkpt lat="59.9839303" lon="15.8245863">
        <ele>75.1202</ele>
        <time>2014-10-31T15:44:10Z</time>
      </trkpt>
      <trkpt lat="59.9838396" lon="15.8245365">
        <ele>74.6395</ele>
        <time>2014-10-31T15:44:14Z</time>
      </trkpt>
      <trkpt lat="59.983743" lon="15.8243666">
        <ele>74.1588</ele>
        <time>2014-10-31T15:44:19Z</time>
      </trkpt>
      <trkpt lat="59.9836298" lon="15.8241775">
        <ele>72.7169</ele>
        <time>2014-10-31T15:44:24Z</time>
      </trkpt>
      <trkpt lat="59.9835167" lon="15.8240922">
        <ele>73.6782</ele>
        <time>2014-10-31T15:44:28Z</time>
      </trkpt>
      <trkpt lat="59.9834645" lon="15.8241166">
        <ele>74.1588</ele>
        <time>2014-10-31T15:44:30Z</time>
      </trkpt>
      <trkpt lat="59.9833997" lon="15.8243043">
        <ele>76.5621</ele>
        <time>2014-10-31T15:44:35Z</time>
      </trkpt>
      <trkpt lat="59.983392" lon="15.8243476">
        <ele>77.0428</ele>
        <time>2014-10-31T15:44:36Z</time>
      </trkpt>
      <trkpt lat="59.9833018" lon="15.8245796">
        <ele>80.8882</ele>
        <time>2014-10-31T15:44:42Z</time>
      </trkpt>
      <trkpt lat="59.9832452" lon="15.8246055">
        <ele>81.8494</ele>
        <time>2014-10-31T15:44:44Z</time>
      </trkpt>
      <trkpt lat="59.9830171" lon="15.8244589">
        <ele>79.9266</ele>
        <time>2014-10-31T15:44:52Z</time>
      </trkpt>
      <trkpt lat="59.9828688" lon="15.8244579">
        <ele>79.9266</ele>
        <time>2014-10-31T15:44:57Z</time>
      </trkpt>
      <trkpt lat="59.9826859" lon="15.8244585">
        <ele>78.9655</ele>
        <time>2014-10-31T15:45:03Z</time>
      </trkpt>
      <trkpt lat="59.982529" lon="15.8244713">
        <ele>78.9655</ele>
        <time>2014-10-31T15:45:08Z</time>
      </trkpt>
      <trkpt lat="59.9823446" lon="15.8245112">
        <ele>79.446</ele>
        <time>2014-10-31T15:45:14Z</time>
      </trkpt>
      <trkpt lat="59.9822107" lon="15.8246262">
        <ele>78.9655</ele>
        <time>2014-10-31T15:45:19Z</time>
      </trkpt>
      <trkpt lat="59.9821392" lon="15.824922">
        <ele>79.9266</ele>
        <time>2014-10-31T15:45:24Z</time>
      </trkpt>
      <trkpt lat="59.9821378" lon="15.8252706">
        <ele>79.9266</ele>
        <time>2014-10-31T15:45:30Z</time>
      </trkpt>
      <trkpt lat="59.9821888" lon="15.8255864">
        <ele>78.9655</ele>
        <time>2014-10-31T15:45:36Z</time>
      </trkpt>
      <trkpt lat="59.9822729" lon="15.8258162">
        <ele>78.4847</ele>
        <time>2014-10-31T15:45:41Z</time>
      </trkpt>
      <trkpt lat="59.9823431" lon="15.8260761">
        <ele>79.446</ele>
        <time>2014-10-31T15:45:46Z</time>
      </trkpt>
      <trkpt lat="59.9824043" lon="15.8263248">
        <ele>78.9655</ele>
        <time>2014-10-31T15:45:50Z</time>
      </trkpt>
      <trkpt lat="59.9824734" lon="15.8266101">
        <ele>78.4847</ele>
        <time>2014-10-31T15:45:55Z</time>
      </trkpt>
      <trkpt lat="59.9825529" lon="15.8268007">
        <ele>77.5234</ele>
        <time>2014-10-31T15:45:59Z</time>
      </trkpt>
      <trkpt lat="59.9826958" lon="15.8271101">
        <ele>77.0428</ele>
        <time>2014-10-31T15:46:06Z</time>
      </trkpt>
      <trkpt lat="59.9828138" lon="15.8273007">
        <ele>77.0428</ele>
        <time>2014-10-31T15:46:11Z</time>
      </trkpt>
      <trkpt lat="59.982932" lon="15.8276177">
        <ele>77.5234</ele>
        <time>2014-10-31T15:46:17Z</time>
      </trkpt>
      <trkpt lat="59.9830372" lon="15.8278729">
        <ele>78.4847</ele>
        <time>2014-10-31T15:46:22Z</time>
      </trkpt>
      <trkpt lat="59.9831728" lon="15.827963">
        <ele>79.446</ele>
        <time>2014-10-31T15:46:27Z</time>
      </trkpt>
      <trkpt lat="59.9832971" lon="15.8278633">
        <ele>78.004</ele>
        <time>2014-10-31T15:46:31Z</time>
      </trkpt>
      <trkpt lat="59.9834065" lon="15.8276757">
        <ele>77.5234</ele>
        <time>2014-10-31T15:46:35Z</time>
      </trkpt>
      <trkpt lat="59.9835262" lon="15.8274156">
        <ele>77.5234</ele>
        <time>2014-10-31T15:46:40Z</time>
      </trkpt>
      <trkpt lat="59.9836671" lon="15.827165">
        <ele>77.0428</ele>
        <time>2014-10-31T15:46:45Z</time>
      </trkpt>
      <trkpt lat="59.9837853" lon="15.8269498">
        <ele>76.0814</ele>
        <time>2014-10-31T15:46:50Z</time>
      </trkpt>
      <trkpt lat="59.983922" lon="15.8267093">
        <ele>74.6395</ele>
        <time>2014-10-31T15:46:55Z</time>
      </trkpt>
      <trkpt lat="59.983995" lon="15.8265315">
        <ele>73.6782</ele>
        <time>2014-10-31T15:46:59Z</time>
      </trkpt>
      <trkpt lat="59.9840162" lon="15.8264935">
        <ele>73.6782</ele>
        <time>2014-10-31T15:47:00Z</time>
      </trkpt>
      <trkpt lat="59.9841436" lon="15.8265087">
        <ele>72.7169</ele>
        <time>2014-10-31T15:47:04Z</time>
      </trkpt>
      <trkpt lat="59.9843846" lon="15.8267442">
        <ele>76.0814</ele>
        <time>2014-10-31T15:47:11Z</time>
      </trkpt>
      <trkpt lat="59.984544" lon="15.8269365">
        <ele>78.4847</ele>
        <time>2014-10-31T15:47:16Z</time>
      </trkpt>
      <trkpt lat="59.9846866" lon="15.8270697">
        <ele>79.9266</ele>
        <time>2014-10-31T15:47:21Z</time>
      </trkpt>
      <trkpt lat="59.984851" lon="15.8272702">
        <ele>81.8494</ele>
        <time>2014-10-31T15:47:27Z</time>
      </trkpt>
    </trkseg>
  </trk>
</gpx>